sensor_id;sensor_type;location;lat;lon;timestamp;pressure;altitude;pressure_sealevel;temperature;humidity
12471;BME280;36499;46.484;13.832;2022-08-11T00:02:35;93722.16;;;15.74;71.72
12471;BME280;36499;46.484;13.832;2022-08-11T00:05:07;93723.78;;;15.75;71.62
12471;BME280;36499;46.484;13.832;2022-08-11T00:07:42;93722.72;;;15.76;71.53
12471;BME280;36499;46.484;13.832;2022-08-11T00:10:13;93726.97;;;15.77;71.66
12471;BME280;36499;46.484;13.832;2022-08-11T00:12:45;93724.13;;;15.78;71.64
12471;BME280;36499;46.484;13.832;2022-08-11T00:15:16;93721.72;;;15.77;70.80
12471;BME280;36499;46.484;13.832;2022-08-11T00:17:45;93711.78;;;15.67;70.01
12471;BME280;36499;46.484;13.832;2022-08-11T00:20:14;93721.13;;;15.63;70.70
12471;BME280;36499;46.484;13.832;2022-08-11T00:22:46;93717.56;;;15.58;71.31
12471;BME280;36499;46.484;13.832;2022-08-11T00:25:17;93717.31;;;15.48;72.11
12471;BME280;36499;46.484;13.832;2022-08-11T00:27:47;93721.25;;;15.27;73.36
12471;BME280;36499;46.484;13.832;2022-08-11T00:30:15;93717.94;;;15.20;74.23
12471;BME280;36499;46.484;13.832;2022-08-11T00:32:52;93724.56;;;15.22;74.04
12471;BME280;36499;46.484;13.832;2022-08-11T00:35:27;93722.53;;;15.24;74.06
12471;BME280;36499;46.484;13.832;2022-08-11T00:37:58;93722.75;;;15.34;73.52
12471;BME280;36499;46.484;13.832;2022-08-11T00:40:36;93718.97;;;15.19;72.38
12471;BME280;36499;46.484;13.832;2022-08-11T00:43:19;93718.72;;;15.09;71.71
12471;BME280;36499;46.484;13.832;2022-08-11T00:46:10;93710.63;;;15.10;71.50
12471;BME280;36499;46.484;13.832;2022-08-11T00:49:02;93727.25;;;15.04;72.32
12471;BME280;36499;46.484;13.832;2022-08-11T00:51:46;93717.19;;;15.01;73.29
12471;BME280;36499;46.484;13.832;2022-08-11T00:54:49;93712.13;;;14.88;74.93
12471;BME280;36499;46.484;13.832;2022-08-11T01:01:08;93720.84;;;15.00;74.37
12471;BME280;36499;46.484;13.832;2022-08-11T01:04:10;93714.88;;;14.93;74.43
12471;BME280;36499;46.484;13.832;2022-08-11T01:10:53;93712.88;;;14.95;74.56
12471;BME280;36499;46.484;13.832;2022-08-11T01:14:09;93712.41;;;14.98;73.75
12471;BME280;36499;46.484;13.832;2022-08-11T01:20:38;93710.41;;;14.82;72.97
12471;BME280;36499;46.484;13.832;2022-08-11T01:30:55;93729.25;;;14.61;74.63
12471;BME280;36499;46.484;13.832;2022-08-11T01:47:41;93726.56;;;14.67;74.11
12471;BME280;36499;46.484;13.832;2022-08-11T01:50:43;93728.22;;;14.62;74.39
12471;BME280;36499;46.484;13.832;2022-08-11T01:53:27;93725.13;;;14.53;74.80
12471;BME280;36499;46.484;13.832;2022-08-11T01:56:15;93721.41;;;14.43;75.20
12471;BME280;36499;46.484;13.832;2022-08-11T01:59:01;93716.44;;;14.34;75.26
12471;BME280;36499;46.484;13.832;2022-08-11T02:01:53;93712.25;;;14.27;76.13
12471;BME280;36499;46.484;13.832;2022-08-11T02:04:34;93708.78;;;14.33;76.04
12471;BME280;36499;46.484;13.832;2022-08-11T02:07:12;93706.09;;;14.39;75.72
12471;BME280;36499;46.484;13.832;2022-08-11T02:10:13;93707.13;;;14.38;75.68
12471;BME280;36499;46.484;13.832;2022-08-11T02:13:13;93702.91;;;14.37;74.00
12471;BME280;36499;46.484;13.832;2022-08-11T02:15:45;93701.88;;;14.38;73.55
12471;BME280;36499;46.484;13.832;2022-08-11T02:18:23;93704.72;;;14.37;73.96
12471;BME280;36499;46.484;13.832;2022-08-11T02:21:18;93697.06;;;14.35;74.17
12471;BME280;36499;46.484;13.832;2022-08-11T02:24:19;93696.84;;;14.37;74.22
12471;BME280;36499;46.484;13.832;2022-08-11T02:26:59;93687.16;;;14.37;74.07
12471;BME280;36499;46.484;13.832;2022-08-11T02:29:37;93691.16;;;14.40;74.10
12471;BME280;36499;46.484;13.832;2022-08-11T02:32:18;93690.97;;;14.42;73.83
12471;BME280;36499;46.484;13.832;2022-08-11T02:35:15;93690.59;;;14.38;73.75
12471;BME280;36499;46.484;13.832;2022-08-11T02:38:07;93690.34;;;14.39;73.74
12471;BME280;36499;46.484;13.832;2022-08-11T02:40:47;93693.84;;;14.33;73.87
12471;BME280;36499;46.484;13.832;2022-08-11T02:43:34;93691.38;;;14.20;74.51
12471;BME280;36499;46.484;13.832;2022-08-11T02:46:19;93685.09;;;14.21;74.66
12471;BME280;36499;46.484;13.832;2022-08-11T02:48:58;93684.31;;;14.21;74.73
12471;BME280;36499;46.484;13.832;2022-08-11T02:52:04;93685.97;;;14.15;75.04
12471;BME280;36499;46.484;13.832;2022-08-11T02:54:43;93687.72;;;13.85;75.19
12471;BME280;36499;46.484;13.832;2022-08-11T02:57:24;93679.06;;;14.03;73.98
12471;BME280;36499;46.484;13.832;2022-08-11T03:00:02;93682.06;;;14.06;74.26
12471;BME280;36499;46.484;13.832;2022-08-11T03:03:06;93679.78;;;14.10;73.63
12471;BME280;36499;46.484;13.832;2022-08-11T03:06:06;93677.09;;;13.98;74.08
12471;BME280;36499;46.484;13.832;2022-08-11T03:08:53;93679.50;;;14.00;74.56
12471;BME280;36499;46.484;13.832;2022-08-11T03:11:48;93675.19;;;14.05;74.82
12471;BME280;36499;46.484;13.832;2022-08-11T03:14:47;93670.09;;;14.10;74.26
12471;BME280;36499;46.484;13.832;2022-08-11T03:17:40;93677.09;;;14.16;73.83
12471;BME280;36499;46.484;13.832;2022-08-11T03:20:25;93678.25;;;14.02;74.09
12471;BME280;36499;46.484;13.832;2022-08-11T03:23:06;93680.53;;;13.99;74.12
12471;BME280;36499;46.484;13.832;2022-08-11T03:25:48;93666.59;;;13.98;74.10
12471;BME280;36499;46.484;13.832;2022-08-11T03:28:30;93672.28;;;13.95;73.88
12471;BME280;36499;46.484;13.832;2022-08-11T03:31:17;93670.47;;;13.96;73.86
12471;BME280;36499;46.484;13.832;2022-08-11T03:33:56;93674.13;;;13.94;73.01
12471;BME280;36499;46.484;13.832;2022-08-11T03:37:18;93683.13;;;13.80;72.33
12471;BME280;36499;46.484;13.832;2022-08-11T03:40:29;93680.88;;;13.66;72.91
12471;BME280;36499;46.484;13.832;2022-08-11T03:43:36;93676.00;;;13.69;74.10
12471;BME280;36499;46.484;13.832;2022-08-11T03:46:19;93677.81;;;13.69;73.88
12471;BME280;36499;46.484;13.832;2022-08-11T03:49:05;93679.41;;;13.70;74.21
12471;BME280;36499;46.484;13.832;2022-08-11T03:51:47;93680.44;;;13.69;74.75
12471;BME280;36499;46.484;13.832;2022-08-11T03:54:31;93675.81;;;13.46;75.84
12471;BME280;36499;46.484;13.832;2022-08-11T03:57:57;93673.72;;;13.30;77.10
12471;BME280;36499;46.484;13.832;2022-08-11T04:01:29;93665.34;;;13.46;76.39
12471;BME280;36499;46.484;13.832;2022-08-11T04:04:53;93670.72;;;13.51;76.12
12471;BME280;36499;46.484;13.832;2022-08-11T04:11:22;93668.31;;;13.50;75.87
12471;BME280;36499;46.484;13.832;2022-08-11T04:14:46;93661.75;;;13.40;76.27
12471;BME280;36499;46.484;13.832;2022-08-11T04:18:19;93653.41;;;13.25;76.85
12471;BME280;36499;46.484;13.832;2022-08-11T04:21:02;93665.28;;;13.28;76.85
12471;BME280;36499;46.484;13.832;2022-08-11T04:23:59;93665.16;;;13.41;76.56
12471;BME280;36499;46.484;13.832;2022-08-11T04:30:06;93665.44;;;13.33;76.59
12471;BME280;36499;46.484;13.832;2022-08-11T04:33:39;93666.50;;;13.50;76.14
12471;BME280;36499;46.484;13.832;2022-08-11T04:36:40;93658.41;;;13.52;76.27
12471;BME280;36499;46.484;13.832;2022-08-11T04:39:59;93660.22;;;13.51;76.02
12471;BME280;36499;46.484;13.832;2022-08-11T04:46:43;93664.63;;;13.75;75.02
12471;BME280;36499;46.484;13.832;2022-08-11T04:49:47;93657.34;;;13.77;75.04
12471;BME280;36499;46.484;13.832;2022-08-11T04:53:12;93669.81;;;13.82;74.83
12471;BME280;36499;46.484;13.832;2022-08-11T04:56:11;93667.78;;;13.84;74.18
12471;BME280;36499;46.484;13.832;2022-08-11T05:09:28;93679.72;;;13.80;74.63
12471;BME280;36499;46.484;13.832;2022-08-11T05:12:18;93676.09;;;13.81;74.62
12471;BME280;36499;46.484;13.832;2022-08-11T05:14:50;93671.34;;;13.89;74.61
12471;BME280;36499;46.484;13.832;2022-08-11T05:17:40;93675.94;;;13.94;74.27
12471;BME280;36499;46.484;13.832;2022-08-11T05:20:25;93674.47;;;13.98;74.44
12471;BME280;36499;46.484;13.832;2022-08-11T05:23:11;93671.28;;;14.14;74.36
12471;BME280;36499;46.484;13.832;2022-08-11T05:26:02;93668.06;;;14.30;73.99
12471;BME280;36499;46.484;13.832;2022-08-11T05:29:01;93662.56;;;14.50;73.67
12471;BME280;36499;46.484;13.832;2022-08-11T05:31:55;93663.13;;;14.70;73.36
12471;BME280;36499;46.484;13.832;2022-08-11T05:34:47;93660.88;;;14.85;72.49
12471;BME280;36499;46.484;13.832;2022-08-11T05:37:24;93662.28;;;15.00;72.25
12471;BME280;36499;46.484;13.832;2022-08-11T05:40:05;93655.91;;;15.19;71.85
12471;BME280;36499;46.484;13.832;2022-08-11T05:42:57;93655.25;;;15.35;71.81
12471;BME280;36499;46.484;13.832;2022-08-11T05:45:42;93646.75;;;15.51;70.52
12471;BME280;36499;46.484;13.832;2022-08-11T05:48:34;93643.44;;;15.67;69.71
12471;BME280;36499;46.484;13.832;2022-08-11T05:51:20;93639.53;;;15.81;69.36
12471;BME280;36499;46.484;13.832;2022-08-11T05:54:08;93631.63;;;15.93;69.58
12471;BME280;36499;46.484;13.832;2022-08-11T05:56:57;93639.22;;;16.06;69.67
12471;BME280;36499;46.484;13.832;2022-08-11T05:59:27;93631.44;;;16.23;69.17
12471;BME280;36499;46.484;13.832;2022-08-11T06:02:00;93631.81;;;16.43;68.45
12471;BME280;36499;46.484;13.832;2022-08-11T06:04:29;93632.13;;;16.58;66.98
12471;BME280;36499;46.484;13.832;2022-08-11T06:07:00;93630.00;;;16.72;65.50
12471;BME280;36499;46.484;13.832;2022-08-11T06:09:33;93631.78;;;16.83;65.75
12471;BME280;36499;46.484;13.832;2022-08-11T06:12:06;93630.31;;;17.04;65.67
12471;BME280;36499;46.484;13.832;2022-08-11T06:14:42;93626.41;;;17.23;66.61
12471;BME280;36499;46.484;13.832;2022-08-11T06:17:11;93621.59;;;17.37;64.56
12471;BME280;36499;46.484;13.832;2022-08-11T06:19:41;93628.63;;;17.48;64.82
12471;BME280;36499;46.484;13.832;2022-08-11T06:22:19;93624.16;;;17.65;64.53
12471;BME280;36499;46.484;13.832;2022-08-11T06:24:54;93617.00;;;17.82;63.67
12471;BME280;36499;46.484;13.832;2022-08-11T06:27:24;93620.84;;;17.91;62.93
12471;BME280;36499;46.484;13.832;2022-08-11T06:29:55;93614.75;;;18.12;62.66
12471;BME280;36499;46.484;13.832;2022-08-11T06:32:26;93620.31;;;18.38;62.27
12471;BME280;36499;46.484;13.832;2022-08-11T06:35:18;93616.66;;;18.60;61.37
12471;BME280;36499;46.484;13.832;2022-08-11T06:38:04;93614.19;;;18.76;59.14
12471;BME280;36499;46.484;13.832;2022-08-11T06:40:39;93610.31;;;18.88;58.64
12471;BME280;36499;46.484;13.832;2022-08-11T06:43:17;93616.78;;;18.97;59.04
12471;BME280;36499;46.484;13.832;2022-08-11T06:45:55;93610.31;;;19.15;58.36
12471;BME280;36499;46.484;13.832;2022-08-11T06:48:31;93612.50;;;19.23;57.52
12471;BME280;36499;46.484;13.832;2022-08-11T06:51:06;93617.38;;;19.41;56.24
12471;BME280;36499;46.484;13.832;2022-08-11T06:53:43;93604.63;;;19.65;56.59
12471;BME280;36499;46.484;13.832;2022-08-11T06:56:13;93611.75;;;19.64;55.90
12471;BME280;36499;46.484;13.832;2022-08-11T06:59:01;93601.84;;;19.87;56.17
12471;BME280;36499;46.484;13.832;2022-08-11T07:02:05;93598.25;;;20.08;55.77
12471;BME280;36499;46.484;13.832;2022-08-11T07:04:42;93598.50;;;20.06;54.19
12471;BME280;36499;46.484;13.832;2022-08-11T07:07:57;93593.34;;;20.37;54.04
12471;BME280;36499;46.484;13.832;2022-08-11T07:11:18;93586.03;;;20.64;53.71
12471;BME280;36499;46.484;13.832;2022-08-11T07:14:11;93584.72;;;20.72;52.08
12471;BME280;36499;46.484;13.832;2022-08-11T07:17:06;93578.38;;;20.88;50.54
12471;BME280;36499;46.484;13.832;2022-08-11T07:19:40;93576.28;;;21.00;50.88
12471;BME280;36499;46.484;13.832;2022-08-11T07:22:30;93578.66;;;21.01;51.12
12471;BME280;36499;46.484;13.832;2022-08-11T07:25:32;93576.81;;;21.27;50.32
12471;BME280;36499;46.484;13.832;2022-08-11T07:28:24;93581.88;;;21.44;49.75
12471;BME280;36499;46.484;13.832;2022-08-11T07:31:15;93568.56;;;21.69;49.93
12471;BME280;36499;46.484;13.832;2022-08-11T07:33:51;93569.31;;;21.85;50.17
12471;BME280;36499;46.484;13.832;2022-08-11T07:36:22;93562.13;;;21.95;49.10
12471;BME280;36499;46.484;13.832;2022-08-11T07:38:53;93564.19;;;22.19;48.60
12471;BME280;36499;46.484;13.832;2022-08-11T07:41:23;93564.63;;;22.41;47.68
12471;BME280;36499;46.484;13.832;2022-08-11T07:43:57;93565.31;;;22.62;47.74
12471;BME280;36499;46.484;13.832;2022-08-11T07:46:37;93563.72;;;22.71;46.28
12471;BME280;36499;46.484;13.832;2022-08-11T07:49:39;93561.69;;;22.91;45.87
12471;BME280;36499;46.484;13.832;2022-08-11T07:52:28;93556.06;;;22.98;43.85
12471;BME280;36499;46.484;13.832;2022-08-11T07:55:00;93556.69;;;23.24;45.66
12471;BME280;36499;46.484;13.832;2022-08-11T07:57:31;93553.56;;;23.51;45.91
12471;BME280;36499;46.484;13.832;2022-08-11T08:00:17;93551.66;;;23.80;44.60
12471;BME280;36499;46.484;13.832;2022-08-11T08:03:05;93552.38;;;23.85;45.25
12471;BME280;36499;46.484;13.832;2022-08-11T08:05:52;93554.13;;;24.00;44.61
12471;BME280;36499;46.484;13.832;2022-08-11T08:08:40;93549.72;;;24.09;45.35
12471;BME280;36499;46.484;13.832;2022-08-11T08:11:26;93547.09;;;24.33;44.33
12471;BME280;36499;46.484;13.832;2022-08-11T08:14:11;93549.69;;;24.38;46.22
12471;BME280;36499;46.484;13.832;2022-08-11T08:16:57;93547.69;;;24.67;42.36
12471;BME280;36499;46.484;13.832;2022-08-11T08:19:46;93544.72;;;24.50;40.80
12471;BME280;36499;46.484;13.832;2022-08-11T08:22:20;93540.78;;;24.66;41.81
12471;BME280;36499;46.484;13.832;2022-08-11T08:24:48;93543.53;;;24.99;43.00
12471;BME280;36499;46.484;13.832;2022-08-11T08:27:17;93536.75;;;25.06;45.02
12471;BME280;36499;46.484;13.832;2022-08-11T08:29:46;93528.88;;;25.47;40.42
12471;BME280;36499;46.484;13.832;2022-08-11T08:32:33;93531.13;;;25.72;40.53
12471;BME280;36499;46.484;13.832;2022-08-11T08:35:05;93529.56;;;25.71;38.59
12471;BME280;36499;46.484;13.832;2022-08-11T08:37:34;93528.47;;;26.00;37.60
12471;BME280;36499;46.484;13.832;2022-08-11T08:40:02;93528.47;;;26.00;36.99
12471;BME280;36499;46.484;13.832;2022-08-11T08:42:38;93528.28;;;25.96;34.23
12471;BME280;36499;46.484;13.832;2022-08-11T08:45:11;93518.38;;;26.10;36.10
12471;BME280;36499;46.484;13.832;2022-08-11T08:47:44;93520.47;;;26.27;33.81
12471;BME280;36499;46.484;13.832;2022-08-11T08:50:15;93520.38;;;26.32;35.32
12471;BME280;36499;46.484;13.832;2022-08-11T08:52:53;93510.34;;;26.51;33.28
12471;BME280;36499;46.484;13.832;2022-08-11T08:55:22;93508.94;;;26.54;33.15
12471;BME280;36499;46.484;13.832;2022-08-11T08:57:53;93517.06;;;26.62;33.79
12471;BME280;36499;46.484;13.832;2022-08-11T09:00:22;93513.50;;;26.53;33.22
12471;BME280;36499;46.484;13.832;2022-08-11T09:02:51;93511.78;;;26.85;33.73
12471;BME280;36499;46.484;13.832;2022-08-11T09:05:19;93515.31;;;26.80;33.97
12471;BME280;36499;46.484;13.832;2022-08-11T09:07:53;93514.56;;;27.02;33.94
12471;BME280;36499;46.484;13.832;2022-08-11T09:10:23;93507.41;;;27.11;32.64
12471;BME280;36499;46.484;13.832;2022-08-11T09:12:52;93501.09;;;27.07;32.60
12471;BME280;36499;46.484;13.832;2022-08-11T09:15:20;93499.53;;;27.37;33.15
12471;BME280;36499;46.484;13.832;2022-08-11T09:17:53;93505.84;;;27.54;32.86
12471;BME280;36499;46.484;13.832;2022-08-11T09:20:33;93510.03;;;27.78;32.17
12471;BME280;36499;46.484;13.832;2022-08-11T09:23:06;93511.16;;;27.77;32.99
12471;BME280;36499;46.484;13.832;2022-08-11T09:25:55;93505.97;;;27.27;32.53
12471;BME280;36499;46.484;13.832;2022-08-11T09:28:43;93491.16;;;27.83;29.89
12471;BME280;36499;46.484;13.832;2022-08-11T09:31:12;93500.53;;;28.02;30.82
12471;BME280;36499;46.484;13.832;2022-08-11T09:33:42;93494.44;;;28.10;31.79
12471;BME280;36499;46.484;13.832;2022-08-11T09:36:12;93493.03;;;28.13;31.07
12471;BME280;36499;46.484;13.832;2022-08-11T09:38:59;93488.75;;;28.12;30.19
12471;BME280;36499;46.484;13.832;2022-08-11T09:41:47;93491.56;;;28.07;31.22
12471;BME280;36499;46.484;13.832;2022-08-11T09:44:15;93480.91;;;28.24;29.80
12471;BME280;36499;46.484;13.832;2022-08-11T09:47:01;93478.72;;;28.35;31.20
12471;BME280;36499;46.484;13.832;2022-08-11T09:49:31;93478.44;;;28.53;31.79
12471;BME280;36499;46.484;13.832;2022-08-11T09:52:00;93469.44;;;28.67;30.59
12471;BME280;36499;46.484;13.832;2022-08-11T09:54:36;93464.59;;;28.69;31.83
12471;BME280;36499;46.484;13.832;2022-08-11T09:57:04;93467.69;;;28.36;29.34
12471;BME280;36499;46.484;13.832;2022-08-11T09:59:51;93459.97;;;28.52;30.85
12471;BME280;36499;46.484;13.832;2022-08-11T10:02:26;93467.09;;;28.74;29.18
12471;BME280;36499;46.484;13.832;2022-08-11T10:04:56;93460.94;;;28.82;30.15
12471;BME280;36499;46.484;13.832;2022-08-11T10:07:46;93462.69;;;28.95;31.88
12471;BME280;36499;46.484;13.832;2022-08-11T10:10:20;93465.03;;;29.14;29.44
12471;BME280;36499;46.484;13.832;2022-08-11T10:12:55;93459.19;;;29.03;30.47
12471;BME280;36499;46.484;13.832;2022-08-11T10:15:27;93454.16;;;29.10;30.58
12471;BME280;36499;46.484;13.832;2022-08-11T10:18:06;93451.78;;;29.08;27.42
12471;BME280;36499;46.484;13.832;2022-08-11T10:20:59;93448.78;;;29.01;31.38
12471;BME280;36499;46.484;13.832;2022-08-11T10:23:30;93441.78;;;29.35;30.31
12471;BME280;36499;46.484;13.832;2022-08-11T10:26:18;93441.50;;;29.36;30.57
12471;BME280;36499;46.484;13.832;2022-08-11T10:29:05;93442.72;;;29.39;30.55
12471;BME280;36499;46.484;13.832;2022-08-11T10:31:54;93429.69;;;29.67;29.06
12471;BME280;36499;46.484;13.832;2022-08-11T10:34:42;93439.69;;;29.49;31.70
12471;BME280;36499;46.484;13.832;2022-08-11T10:37:11;93428.19;;;29.48;29.99
12471;BME280;36499;46.484;13.832;2022-08-11T10:39:42;93422.44;;;29.59;29.05
12471;BME280;36499;46.484;13.832;2022-08-11T10:42:13;93433.50;;;29.57;28.94
12471;BME280;36499;46.484;13.832;2022-08-11T10:45:00;93422.88;;;29.69;28.97
12471;BME280;36499;46.484;13.832;2022-08-11T10:47:50;93414.78;;;29.86;27.94
12471;BME280;36499;46.484;13.832;2022-08-11T10:50:18;93412.72;;;29.20;28.89
12471;BME280;36499;46.484;13.832;2022-08-11T10:53:03;93428.59;;;28.87;30.21
12471;BME280;36499;46.484;13.832;2022-08-11T10:55:49;93423.53;;;28.94;32.25
12471;BME280;36499;46.484;13.832;2022-08-11T10:58:36;93412.56;;;29.16;30.24
12471;BME280;36499;46.484;13.832;2022-08-11T11:01:15;93415.56;;;27.63;30.54
12471;BME280;36499;46.484;13.832;2022-08-11T11:03:45;93416.06;;;28.22;34.49
12471;BME280;36499;46.484;13.832;2022-08-11T11:06:25;93412.28;;;28.32;34.45
12471;BME280;36499;46.484;13.832;2022-08-11T11:09:01;93409.16;;;28.81;33.39
12471;BME280;36499;46.484;13.832;2022-08-11T11:11:36;93411.16;;;29.27;32.90
12471;BME280;36499;46.484;13.832;2022-08-11T11:14:29;93407.22;;;29.07;32.78
12471;BME280;36499;46.484;13.832;2022-08-11T11:17:18;93399.19;;;28.99;32.88
12471;BME280;36499;46.484;13.832;2022-08-11T11:20:08;93404.22;;;28.57;31.77
12471;BME280;36499;46.484;13.832;2022-08-11T11:22:36;93400.41;;;28.07;32.67
12471;BME280;36499;46.484;13.832;2022-08-11T11:25:18;93397.66;;;27.90;31.68
12471;BME280;36499;46.484;13.832;2022-08-11T11:28:18;93400.16;;;27.78;33.80
12471;BME280;36499;46.484;13.832;2022-08-11T11:31:10;93392.00;;;27.91;33.28
12471;BME280;36499;46.484;13.832;2022-08-11T11:34:08;93381.66;;;28.16;35.62
12471;BME280;36499;46.484;13.832;2022-08-11T11:36:46;93386.41;;;28.61;32.48
12471;BME280;36499;46.484;13.832;2022-08-11T11:39:18;93380.91;;;28.84;31.56
12471;BME280;36499;46.484;13.832;2022-08-11T11:41:47;93378.88;;;28.72;33.04
12471;BME280;36499;46.484;13.832;2022-08-11T11:44:15;93375.06;;;28.73;32.95
12471;BME280;36499;46.484;13.832;2022-08-11T11:46:45;93376.88;;;29.07;32.01
12471;BME280;36499;46.484;13.832;2022-08-11T11:49:16;93373.44;;;29.53;29.81
12471;BME280;36499;46.484;13.832;2022-08-11T11:51:46;93364.66;;;29.35;29.01
12471;BME280;36499;46.484;13.832;2022-08-11T11:54:15;93363.91;;;29.18;28.81
12471;BME280;36499;46.484;13.832;2022-08-11T11:56:43;93369.63;;;29.07;29.04
12471;BME280;36499;46.484;13.832;2022-08-11T11:59:12;93361.63;;;28.82;28.48
12471;BME280;36499;46.484;13.832;2022-08-11T12:02:00;93368.56;;;28.66;28.40
12471;BME280;36499;46.484;13.832;2022-08-11T12:04:29;93358.13;;;28.90;30.82
12471;BME280;36499;46.484;13.832;2022-08-11T12:06:57;93364.97;;;29.34;30.37
12471;BME280;36499;46.484;13.832;2022-08-11T12:09:39;93356.91;;;29.72;30.10
12471;BME280;36499;46.484;13.832;2022-08-11T12:12:08;93363.94;;;29.93;29.80
12471;BME280;36499;46.484;13.832;2022-08-11T12:14:53;93359.25;;;30.32;28.95
12471;BME280;36499;46.484;13.832;2022-08-11T12:17:23;93357.63;;;30.39;28.92
12471;BME280;36499;46.484;13.832;2022-08-11T12:19:51;93354.81;;;30.57;30.73
12471;BME280;36499;46.484;13.832;2022-08-11T12:22:19;93354.56;;;30.82;30.02
12471;BME280;36499;46.484;13.832;2022-08-11T12:25:05;93348.84;;;30.84;29.88
12471;BME280;36499;46.484;13.832;2022-08-11T12:27:52;93352.09;;;31.10;30.70
12471;BME280;36499;46.484;13.832;2022-08-11T12:30:20;93355.72;;;31.14;29.53
12471;BME280;36499;46.484;13.832;2022-08-11T12:32:50;93350.44;;;30.97;29.23
12471;BME280;36499;46.484;13.832;2022-08-11T12:35:18;93347.50;;;31.11;27.60
12471;BME280;36499;46.484;13.832;2022-08-11T12:37:51;93342.59;;;31.25;27.31
12471;BME280;36499;46.484;13.832;2022-08-11T12:40:24;93344.38;;;30.88;27.61
12471;BME280;36499;46.484;13.832;2022-08-11T12:43:17;93336.84;;;31.14;28.16
12471;BME280;36499;46.484;13.832;2022-08-11T12:46:11;93338.84;;;31.05;26.76
12471;BME280;36499;46.484;13.832;2022-08-11T12:48:47;93340.53;;;30.77;27.34
12471;BME280;36499;46.484;13.832;2022-08-11T12:51:45;93332.09;;;30.66;27.65
12471;BME280;36499;46.484;13.832;2022-08-11T12:54:28;93330.78;;;30.52;30.89
12471;BME280;36499;46.484;13.832;2022-08-11T12:57:02;93327.75;;;30.74;27.51
12471;BME280;36499;46.484;13.832;2022-08-11T12:59:50;93324.81;;;31.00;28.23
12471;BME280;36499;46.484;13.832;2022-08-11T13:02:36;93325.84;;;31.07;27.75
12471;BME280;36499;46.484;13.832;2022-08-11T13:05:22;93321.25;;;31.08;26.86
12471;BME280;36499;46.484;13.832;2022-08-11T13:07:51;93323.28;;;30.90;27.07
12471;BME280;36499;46.484;13.832;2022-08-11T13:10:20;93317.09;;;30.77;28.09
12471;BME280;36499;46.484;13.832;2022-08-11T13:13:02;93314.41;;;30.89;27.40
12471;BME280;36499;46.484;13.832;2022-08-11T13:15:31;93314.25;;;31.07;27.24
12471;BME280;36499;46.484;13.832;2022-08-11T13:17:59;93309.91;;;31.26;26.73
12471;BME280;36499;46.484;13.832;2022-08-11T13:20:30;93299.59;;;31.40;26.60
12471;BME280;36499;46.484;13.832;2022-08-11T13:22:59;93299.91;;;31.39;26.69
12471;BME280;36499;46.484;13.832;2022-08-11T13:25:30;93299.63;;;31.53;27.36
12471;BME280;36499;46.484;13.832;2022-08-11T13:27:59;93287.22;;;31.52;27.61
12471;BME280;36499;46.484;13.832;2022-08-11T13:30:30;93290.97;;;31.71;27.13
12471;BME280;36499;46.484;13.832;2022-08-11T13:33:18;93278.16;;;31.80;27.02
12471;BME280;36499;46.484;13.832;2022-08-11T13:35:50;93278.06;;;31.65;24.93
12471;BME280;36499;46.484;13.832;2022-08-11T13:38:20;93290.06;;;31.55;24.93
12471;BME280;36499;46.484;13.832;2022-08-11T13:40:50;93277.59;;;31.63;26.21
12471;BME280;36499;46.484;13.832;2022-08-11T13:43:20;93284.47;;;31.60;27.56
12471;BME280;36499;46.484;13.832;2022-08-11T13:45:49;93276.38;;;31.72;26.07
12471;BME280;36499;46.484;13.832;2022-08-11T13:48:38;93278.38;;;31.63;26.18
12471;BME280;36499;46.484;13.832;2022-08-11T13:51:09;93277.00;;;31.81;28.07
12471;BME280;36499;46.484;13.832;2022-08-11T13:53:56;93265.88;;;31.83;27.14
12471;BME280;36499;46.484;13.832;2022-08-11T13:56:26;93269.28;;;31.68;25.78
12471;BME280;36499;46.484;13.832;2022-08-11T13:58:55;93258.00;;;31.90;25.50
12471;BME280;36499;46.484;13.832;2022-08-11T14:01:27;93258.22;;;31.97;27.06
12471;BME280;36499;46.484;13.832;2022-08-11T14:03:58;93257.97;;;32.02;24.99
12471;BME280;36499;46.484;13.832;2022-08-11T14:06:31;93252.78;;;32.21;27.60
12471;BME280;36499;46.484;13.832;2022-08-11T14:09:00;93247.13;;;32.26;26.11
12471;BME280;36499;46.484;13.832;2022-08-11T14:11:30;93251.16;;;32.32;26.77
12471;BME280;36499;46.484;13.832;2022-08-11T14:14:25;93241.75;;;32.42;27.16
12471;BME280;36499;46.484;13.832;2022-08-11T14:16:55;93246.13;;;32.47;25.32
12471;BME280;36499;46.484;13.832;2022-08-11T14:19:25;93248.56;;;32.36;25.88
12471;BME280;36499;46.484;13.832;2022-08-11T14:21:56;93244.31;;;32.51;25.01
12471;BME280;36499;46.484;13.832;2022-08-11T14:24:33;93243.66;;;32.26;24.87
12471;BME280;36499;46.484;13.832;2022-08-11T14:27:02;93239.25;;;32.33;23.95
12471;BME280;36499;46.484;13.832;2022-08-11T14:29:30;93233.88;;;32.49;25.01
12471;BME280;36499;46.484;13.832;2022-08-11T14:32:02;93238.19;;;31.98;24.20
12471;BME280;36499;46.484;13.832;2022-08-11T14:34:31;93233.78;;;32.18;25.17
12471;BME280;36499;46.484;13.832;2022-08-11T14:37:06;93236.22;;;32.23;25.40
12471;BME280;36499;46.484;13.832;2022-08-11T14:39:42;93230.19;;;32.14;25.13
12471;BME280;36499;46.484;13.832;2022-08-11T14:42:15;93224.25;;;32.08;25.33
12471;BME280;36499;46.484;13.832;2022-08-11T14:45:04;93216.50;;;32.07;24.96
12471;BME280;36499;46.484;13.832;2022-08-11T14:47:58;93221.31;;;32.13;25.49
12471;BME280;36499;46.484;13.832;2022-08-11T14:50:30;93221.00;;;32.30;26.08
12471;BME280;36499;46.484;13.832;2022-08-11T14:53:01;93215.03;;;32.37;26.70
12471;BME280;36499;46.484;13.832;2022-08-11T14:55:37;93213.31;;;32.45;25.25
12471;BME280;36499;46.484;13.832;2022-08-11T14:58:25;93210.34;;;32.50;24.75
12471;BME280;36499;46.484;13.832;2022-08-11T15:00:55;93216.09;;;32.48;24.82